createdAt,value
2023-05-16T00:11:12.208Z,96880.59
2023-05-16T00:13:42.481Z,96875.75
2023-05-16T00:16:10.068Z,96869.63
2023-05-16T00:18:37.819Z,96873.88
2023-05-16T00:21:05.019Z,96882.16
2023-05-16T00:23:32.371Z,96875.28
2023-05-16T00:25:59.350Z,96871.69
2023-05-16T00:28:26.351Z,96872.25
2023-05-16T00:30:53.403Z,96876.31
2023-05-16T00:33:20.450Z,96856.16
2023-05-16T00:35:47.499Z,96866.41
2023-05-16T00:38:14.438Z,96856.69
2023-05-16T00:40:41.403Z,96864.75
2023-05-16T00:43:10.149Z,96867.13
2023-05-16T00:45:37.168Z,96859.09
2023-05-16T00:48:04.783Z,96866.50
2023-05-16T00:50:34.540Z,96880.63
2023-05-16T00:53:01.531Z,96876.84
2023-05-16T00:55:28.622Z,96883.97
2023-05-16T00:57:58.120Z,96887.91
2023-05-16T01:00:25.890Z,96883.53
2023-05-16T01:02:53.932Z,96891.69
2023-05-16T01:05:21.313Z,96869.88
2023-05-16T01:07:48.353Z,96879.66
2023-05-16T01:10:16.080Z,96883.84
2023-05-16T01:13:01.848Z,96869.94
2023-05-16T01:15:32.829Z,96862.81
2023-05-16T01:18:11.420Z,96859.66
2023-05-16T01:21:00.516Z,96875.09
2023-05-16T01:23:51.759Z,96874.25
2023-05-16T01:26:27.110Z,96866.66
2023-05-16T01:28:55.474Z,96872.00
2023-05-16T01:31:23.406Z,96876.19
2023-05-16T01:33:51.972Z,96873.66
2023-05-16T01:36:33.163Z,96862.00
2023-05-16T01:39:53.095Z,96856.31
2023-05-16T01:42:24.743Z,96849.81
2023-05-16T01:45:07.135Z,96852.13
2023-05-16T01:47:40.007Z,96848.56
2023-05-16T01:50:17.849Z,96847.09
2023-05-16T01:52:58.980Z,96838.56
2023-05-16T01:55:45.946Z,96840.69
2023-05-16T01:58:15.113Z,96820.97
2023-05-16T02:00:43.488Z,96826.31
2023-05-16T02:03:10.835Z,96823.78
2023-05-16T02:05:38.494Z,96832.16
2023-05-16T02:08:05.992Z,96825.63
2023-05-16T02:10:33.053Z,96815.91
2023-05-16T02:13:00.709Z,96820.06
2023-05-16T02:15:27.951Z,96822.88
2023-05-16T02:17:55.885Z,96825.50
2023-05-16T02:20:23.069Z,96817.13
2023-05-16T02:22:50.185Z,96812.63
2023-05-16T02:25:17.339Z,96804.81
2023-05-16T02:27:44.268Z,96801.78
2023-05-16T02:30:12.293Z,96793.53
2023-05-16T02:32:40.684Z,96801.34
2023-05-16T02:35:08.904Z,96803.53
2023-05-16T02:37:35.914Z,96802.09
2023-05-16T02:40:05.850Z,96791.22
2023-05-16T02:42:33.068Z,96792.50
2023-05-16T02:45:00.184Z,96798.63
2023-05-16T02:47:27.452Z,96791.41
2023-05-16T02:49:54.458Z,96784.56
2023-05-16T02:52:21.615Z,96792.16
2023-05-16T02:54:59.856Z,96792.06
2023-05-16T02:57:35.570Z,96771.59
2023-05-16T03:00:02.510Z,96781.78
2023-05-16T03:02:31.726Z,96786.28
2023-05-16T03:04:58.851Z,96784.63
2023-05-16T03:07:25.755Z,96790.69
2023-05-16T03:09:52.623Z,96787.44
2023-05-16T03:12:19.546Z,96778.38
2023-05-16T03:14:46.518Z,96795.47
2023-05-16T03:17:13.483Z,96795.00
2023-05-16T03:19:40.377Z,96793.63
2023-05-16T03:22:08.485Z,96792.69
2023-05-16T03:24:35.508Z,96785.19
2023-05-16T03:27:03.786Z,96796.03
2023-05-16T03:29:31.236Z,96791.97
2023-05-16T03:31:58.160Z,96788.50
2023-05-16T03:34:25.150Z,96795.28
2023-05-16T03:36:52.578Z,96800.41
2023-05-16T03:39:19.958Z,96802.50
2023-05-16T03:41:47.201Z,96794.56
2023-05-16T03:44:14.117Z,96786.53
2023-05-16T03:46:41.319Z,96786.22
2023-05-16T03:49:08.255Z,96783.56
2023-05-16T03:51:35.301Z,96790.97
2023-05-16T03:54:02.332Z,96798.66
2023-05-16T03:56:29.225Z,96771.13
2023-05-16T03:58:56.122Z,96801.66
2023-05-16T04:01:23.015Z,96796.53
2023-05-16T04:03:51.115Z,96782.34
2023-05-16T04:06:18.338Z,96785.47
2023-05-16T04:08:45.697Z,96792.22
2023-05-16T04:11:13.050Z,96796.00
2023-05-16T04:13:40.195Z,96803.31
2023-05-16T04:16:07.675Z,96799.34
2023-05-16T04:18:34.885Z,96793.09
2023-05-16T04:21:01.958Z,96816.66
2023-05-16T04:23:29.079Z,96813.34
2023-05-16T04:25:57.029Z,96817.81
2023-05-16T04:28:23.955Z,96821.91
2023-05-16T04:30:51.379Z,96812.84
2023-05-16T04:33:18.858Z,96828.38
2023-05-16T04:35:45.800Z,96816.59
2023-05-16T04:38:12.705Z,96828.19
2023-05-16T04:40:41.752Z,96827.13
2023-05-16T04:43:08.702Z,96830.66
2023-05-16T04:45:37.571Z,96822.13
2023-05-16T04:48:05.120Z,96810.81
2023-05-16T04:50:32.467Z,96795.13
2023-05-16T04:52:59.702Z,96791.50
2023-05-16T04:55:26.959Z,96799.25
2023-05-16T04:57:54.160Z,96792.84
2023-05-16T05:00:21.417Z,96799.63
2023-05-16T05:02:48.715Z,96801.53
2023-05-16T05:05:15.866Z,96804.16
2023-05-16T05:07:43.244Z,96802.81
2023-05-16T05:10:10.989Z,96790.84
2023-05-16T05:12:38.116Z,96798.75
2023-05-16T05:15:06.315Z,96797.28
2023-05-16T05:17:33.991Z,96802.16
2023-05-16T05:20:02.818Z,96790.97
2023-05-16T05:22:31.050Z,96809.75
2023-05-16T05:24:58.074Z,96795.91
2023-05-16T05:27:25.494Z,96799.09
2023-05-16T05:29:52.434Z,96794.88
2023-05-16T05:32:19.443Z,96797.03
2023-05-16T05:34:46.477Z,96796.28
2023-05-16T05:37:14.596Z,96804.34
2023-05-16T05:39:41.620Z,96810.84
2023-05-16T05:42:08.548Z,96813.00
2023-05-16T05:44:37.968Z,96808.31
2023-05-16T05:47:06.768Z,96809.53
2023-05-16T05:49:34.391Z,96796.03
2023-05-16T05:52:01.512Z,96809.53
2023-05-16T05:54:29.048Z,96816.81
2023-05-16T05:56:58.208Z,96810.31
2023-05-16T05:59:25.416Z,96805.53
2023-05-16T06:01:53.039Z,96799.38
2023-05-16T06:04:21.085Z,96806.13
2023-05-16T06:06:48.410Z,96811.34
2023-05-16T06:09:15.555Z,96814.19
2023-05-16T06:11:45.613Z,96814.00
2023-05-16T06:14:12.613Z,96806.22
2023-05-16T06:16:40.529Z,96805.34
2023-05-16T06:19:08.307Z,96814.28
2023-05-16T06:21:35.392Z,96793.63
2023-05-16T06:24:02.497Z,96801.44
2023-05-16T06:26:29.424Z,96760.50
2023-05-16T06:28:56.378Z,96781.38
2023-05-16T06:31:23.389Z,96807.78
2023-05-16T06:33:50.497Z,96811.25
2023-05-16T06:36:17.521Z,96799.81
2023-05-16T06:38:44.722Z,96807.69
2023-05-16T06:41:11.806Z,96794.00
2023-05-16T06:43:40.370Z,96802.13
2023-05-16T06:46:07.464Z,96793.09
2023-05-16T06:48:34.570Z,96784.34
2023-05-16T06:51:01.624Z,96785.97
2023-05-16T06:53:29.607Z,96775.06
2023-05-16T06:55:56.799Z,96785.09
2023-05-16T06:58:23.769Z,96785.88
2023-05-16T07:00:51.076Z,96780.03
2023-05-16T07:03:19.176Z,96768.41
2023-05-16T07:05:46.469Z,96765.56
2023-05-16T07:08:13.600Z,96766.56
2023-05-16T07:10:40.620Z,96761.03
2023-05-16T07:13:07.781Z,96765.34
2023-05-16T07:15:34.872Z,96770.75
2023-05-16T07:18:02.115Z,96770.94
2023-05-16T07:20:29.208Z,96777.03
2023-05-16T07:22:57.782Z,96780.44
2023-05-16T07:25:26.267Z,96770.63
2023-05-16T07:27:53.627Z,96772.03
2023-05-16T07:30:21.520Z,96771.88
2023-05-16T07:32:49.526Z,96757.13
2023-05-16T07:35:17.054Z,96752.97
2023-05-16T07:37:44.174Z,96764.91
2023-05-16T07:40:11.866Z,96750.34
2023-05-16T07:42:38.865Z,96747.28
2023-05-16T07:45:07.400Z,96739.25
2023-05-16T07:47:34.875Z,96757.69
2023-05-16T07:50:02.157Z,96739.84
2023-05-16T07:52:32.140Z,96756.03
2023-05-16T07:54:59.253Z,96757.00
2023-05-16T07:57:26.305Z,96748.81
2023-05-16T07:59:53.601Z,96723.06
2023-05-16T08:02:21.048Z,96726.41
2023-05-16T08:04:49.122Z,96752.97
2023-05-16T08:07:16.190Z,96742.03
2023-05-16T08:09:43.326Z,96740.13
2023-05-16T08:12:10.732Z,96728.47
2023-05-16T08:14:37.865Z,96717.06
2023-05-16T08:17:05.191Z,96716.78
2023-05-16T08:19:33.131Z,96728.44
2023-05-16T08:32:03.288Z,96723.94
2023-05-16T09:01:24.700Z,96734.34
2023-05-16T09:03:52.800Z,96719.69
2023-05-16T09:06:20.254Z,96707.88
2023-05-16T09:08:47.393Z,96719.00
2023-05-16T09:11:14.399Z,96718.66
2023-05-16T09:13:41.528Z,96713.94
2023-05-16T09:16:13.848Z,96701.97
2023-05-16T09:18:43.472Z,96715.94
2023-05-16T09:21:11.621Z,96718.19
2023-05-16T09:23:38.672Z,96703.88
2023-05-16T09:26:08.205Z,96712.44
2023-05-16T09:28:38.474Z,96713.56
2023-05-16T09:31:26.995Z,96706.00
2023-05-16T09:33:56.781Z,96723.47
2023-05-16T09:36:23.823Z,96748.53
2023-05-16T09:38:51.791Z,96748.22
2023-05-16T09:41:19.002Z,96735.03
2023-05-16T09:43:46.716Z,96724.44
2023-05-16T09:46:14.919Z,96735.34
2023-05-16T09:48:45.319Z,96732.06
2023-05-16T09:51:13.148Z,96737.56
2023-05-16T09:53:41.873Z,96735.25
2023-05-16T09:56:12.350Z,96735.00
2023-05-16T09:58:42.072Z,96734.25
2023-05-16T10:01:10.689Z,96726.66
2023-05-16T10:03:40.509Z,96710.19
2023-05-16T10:06:09.235Z,96718.75
2023-05-16T10:08:37.260Z,96714.97
2023-05-16T10:11:06.018Z,96707.00
2023-05-16T10:13:35.326Z,96707.78
2023-05-16T10:16:08.471Z,96699.75
2023-05-16T10:18:38.358Z,96692.84
2023-05-16T10:21:11.049Z,96678.00
2023-05-16T10:23:42.544Z,96685.44
2023-05-16T10:26:11.576Z,96673.22
2023-05-16T10:28:40.585Z,96660.09
2023-05-16T10:31:10.252Z,96665.66
2023-05-16T10:33:37.734Z,96663.41
2023-05-16T10:36:05.779Z,96672.44
2023-05-16T10:38:34.891Z,96663.53
2023-05-16T10:41:02.384Z,96660.91
2023-05-16T10:43:31.017Z,96631.84
2023-05-16T10:46:11.616Z,96636.47
2023-05-16T10:48:41.326Z,96644.09
2023-05-16T10:51:23.745Z,96639.41
2023-05-16T10:53:55.290Z,96638.19
2023-05-16T10:56:24.133Z,96623.81
2023-05-16T10:58:53.992Z,96604.66
2023-05-16T11:01:25.501Z,96618.84
2023-05-16T11:03:58.594Z,96605.03
2023-05-16T11:06:47.263Z,96605.19
2023-05-16T11:09:14.245Z,96613.38
2023-05-16T11:11:44.314Z,96613.59
2023-05-16T11:14:35.024Z,96586.81
2023-05-16T11:17:25.162Z,96597.84
2023-05-16T13:30:08.820Z,96583.59
2023-05-16T13:32:38.325Z,96570.38
2023-05-16T13:35:06.294Z,96563.94
2023-05-16T13:37:33.536Z,96569.44
2023-05-16T13:40:00.800Z,96565.13
2023-05-16T13:42:43.839Z,96559.63
2023-05-16T13:45:10.900Z,96555.47
2023-05-16T13:47:37.999Z,96534.34
2023-05-16T13:50:09.375Z,96536.16
2023-05-16T13:52:40.349Z,96518.78
2023-05-16T13:55:08.267Z,96530.91
2023-05-16T13:57:35.997Z,96526.75
2023-05-16T14:00:35.427Z,96529.56
2023-05-16T14:02:59.408Z,96537.34
2023-05-16T14:05:26.566Z,96513.53
2023-05-16T14:07:53.577Z,96517.84
2023-05-16T14:10:20.664Z,96509.41
2023-05-16T14:12:49.093Z,96510.56
2023-05-16T14:15:16.213Z,96497.16
2023-05-16T14:17:43.252Z,96488.25
2023-05-16T14:20:10.913Z,96496.69
2023-05-16T14:22:38.448Z,96496.97
2023-05-16T14:25:06.381Z,96491.53
2023-05-16T14:27:33.500Z,96495.81
2023-05-16T14:30:01.273Z,96498.97
2023-05-16T14:32:32.355Z,96511.38
2023-05-16T14:34:59.589Z,96504.59
2023-05-16T14:37:27.801Z,96500.63
2023-05-16T14:39:57.940Z,96502.25
2023-05-16T14:42:28.243Z,96514.47
2023-05-16T14:44:55.214Z,96496.44
2023-05-16T14:47:22.564Z,96506.06
2023-05-16T14:49:49.730Z,96489.03
2023-05-16T14:52:16.671Z,96494.84
2023-05-16T14:54:43.665Z,96491.38
2023-05-16T14:57:10.732Z,96485.75
2023-05-16T14:59:37.806Z,96496.97
2023-05-16T15:02:05.483Z,96481.94
2023-05-16T15:04:33.014Z,96489.22
2023-05-16T15:07:00.083Z,96494.03
2023-05-16T15:09:27.031Z,96489.34
2023-05-16T15:11:54.019Z,96491.34
2023-05-16T15:14:20.973Z,96493.97
2023-05-16T15:16:48.995Z,96500.25
2023-05-16T15:19:16.049Z,96490.34
2023-05-16T15:21:43.080Z,96485.03
2023-05-16T15:24:10.144Z,96491.78
2023-05-16T15:26:39.270Z,96478.34
2023-05-16T15:29:06.461Z,96485.94
2023-05-16T15:31:33.736Z,96485.63
2023-05-16T15:34:00.956Z,96487.25
2023-05-16T15:36:28.043Z,96477.63
2023-05-16T15:38:55.098Z,96481.94
2023-05-16T15:41:37.091Z,96486.88
2023-05-16T15:44:09.227Z,96482.25
2023-05-16T15:46:36.232Z,96488.47
2023-05-16T15:49:03.275Z,96487.13
2023-05-16T15:51:31.169Z,96490.59
2023-05-16T15:53:58.072Z,96498.19
2023-05-16T15:56:25.037Z,96495.19
2023-05-16T15:58:52.062Z,96503.31
2023-05-16T16:01:19.255Z,96493.06
2023-05-16T16:03:46.621Z,96489.75
2023-05-16T16:06:13.920Z,96483.50
2023-05-16T16:08:41.098Z,96486.19
2023-05-16T16:11:08.054Z,96492.31
2023-05-16T16:13:35.186Z,96481.84
2023-05-16T16:16:02.267Z,96483.63
2023-05-16T16:18:29.529Z,96474.56
2023-05-16T16:20:56.506Z,96479.84
2023-05-16T16:23:23.448Z,96480.88
2023-05-16T16:25:50.397Z,96473.03
2023-05-16T16:28:17.415Z,96478.97
2023-05-16T16:30:46.725Z,96480.59
2023-05-16T16:33:13.801Z,96488.22
2023-05-16T16:35:40.947Z,96484.25
2023-05-16T16:38:08.029Z,96476.22
2023-05-16T16:40:35.425Z,96490.44
2023-05-16T16:43:02.439Z,96497.84
2023-05-16T16:45:29.892Z,96491.00
2023-05-16T16:47:57.989Z,96485.63
2023-05-16T16:50:25.185Z,96491.53
2023-05-16T16:52:53.774Z,96477.72
2023-05-16T16:55:21.215Z,96497.69
2023-05-16T16:57:48.531Z,96497.31
2023-05-16T17:00:16.420Z,96500.06
2023-05-16T17:02:43.647Z,96504.31
2023-05-16T17:05:11.116Z,96509.47
2023-05-16T17:07:38.539Z,96499.88
2023-05-16T17:10:07.957Z,96501.91
2023-05-16T17:12:35.164Z,96504.00
2023-05-16T17:15:02.376Z,96508.47
2023-05-16T17:17:32.670Z,96505.81
2023-05-16T17:19:59.745Z,96508.06
2023-05-16T17:22:26.788Z,96510.03
2023-05-16T17:24:53.926Z,96507.00
2023-05-16T17:27:20.830Z,96514.31
2023-05-16T17:29:47.866Z,96521.63
2023-05-16T17:32:15.104Z,96520.50
2023-05-16T17:34:44.602Z,96504.16
2023-05-16T17:37:14.551Z,96525.63
2023-05-16T17:39:41.556Z,96522.91
2023-05-16T17:42:09.453Z,96510.22
2023-05-16T17:44:36.794Z,96521.97
2023-05-16T17:47:04.147Z,96516.97
2023-05-16T17:49:31.192Z,96514.19
2023-05-16T17:51:58.401Z,96516.00
2023-05-16T17:54:27.271Z,96513.66
2023-05-16T17:56:54.810Z,96513.06
2023-05-16T17:59:22.050Z,96511.97
2023-05-16T18:01:49.088Z,96525.84
2023-05-16T18:04:18.210Z,96521.25
2023-05-16T18:06:46.315Z,96507.56
2023-05-16T18:09:15.041Z,96516.16
2023-05-16T18:11:42.666Z,96523.22
2023-05-16T18:14:09.973Z,96516.28
2023-05-16T18:16:36.962Z,96513.38
2023-05-16T18:19:06.454Z,96524.34
2023-05-16T18:21:33.900Z,96503.78
2023-05-16T18:24:00.972Z,96527.13
2023-05-16T18:26:28.922Z,96517.03
2023-05-16T18:28:56.213Z,96531.41
2023-05-16T18:31:23.208Z,96529.34
2023-05-16T18:33:50.338Z,96539.88
2023-05-16T18:36:17.286Z,96532.00
2023-05-16T18:38:44.329Z,96530.00
2023-05-16T18:41:11.392Z,96544.78
2023-05-16T18:43:38.508Z,96548.16
2023-05-16T18:46:05.908Z,96538.88
2023-05-16T18:48:34.666Z,96542.88
2023-05-16T18:51:03.580Z,96534.72
2023-05-16T18:53:31.006Z,96540.00
2023-05-16T18:55:58.632Z,96551.78
2023-05-16T18:58:25.789Z,96539.03
2023-05-16T19:00:53.170Z,96542.50
2023-05-16T19:03:20.544Z,96543.19
2023-05-16T19:05:47.886Z,96540.69
2023-05-16T19:08:15.057Z,96542.34
2023-05-16T19:10:42.093Z,96545.66
2023-05-16T19:13:09.138Z,96536.88
2023-05-16T19:15:36.867Z,96543.19
2023-05-16T19:18:07.213Z,96535.66
2023-05-16T19:20:35.649Z,96536.59
2023-05-16T19:23:03.521Z,96521.34
2023-05-16T19:25:30.769Z,96532.16
2023-05-16T19:27:57.929Z,96531.06
2023-05-16T19:30:25.290Z,96541.88
2023-05-16T19:32:52.480Z,96521.28
2023-05-16T19:35:19.712Z,96535.50
2023-05-16T19:37:46.810Z,96538.84
2023-05-16T19:40:15.605Z,96539.13
2023-05-16T19:42:44.067Z,96537.16
2023-05-16T19:45:11.384Z,96527.59
2023-05-16T19:47:38.572Z,96520.84
2023-05-16T19:50:06.976Z,96527.94
2023-05-16T19:52:34.781Z,96526.66
2023-05-16T19:55:02.254Z,96529.16
2023-05-16T19:57:31.720Z,96534.56
2023-05-16T19:59:58.773Z,96542.72
2023-05-16T20:02:26.217Z,96550.75
2023-05-16T20:04:53.963Z,96551.56
2023-05-16T20:07:21.188Z,96549.94
2023-05-16T20:09:48.211Z,96536.34
2023-05-16T20:12:15.855Z,96549.66
2023-05-16T20:14:43.167Z,96545.06
2023-05-16T20:17:10.224Z,96533.88
2023-05-16T20:19:37.647Z,96535.81
2023-05-16T20:22:04.871Z,96528.63
2023-05-16T20:24:31.835Z,96537.63
2023-05-16T20:26:59.145Z,96533.88
2023-05-16T20:29:26.452Z,96545.78
2023-05-16T20:31:53.372Z,96563.19
2023-05-16T20:34:20.403Z,96567.06
2023-05-16T20:36:47.411Z,96591.41
2023-05-16T20:39:14.359Z,96593.63
2023-05-16T20:41:41.362Z,96597.06
2023-05-16T20:44:09.132Z,96581.16
2023-05-16T20:46:36.963Z,96562.34
2023-05-16T20:49:04.068Z,96571.25
2023-05-16T20:51:31.109Z,96603.66
2023-05-16T20:53:58.154Z,96619.13
2023-05-16T20:56:25.070Z,96617.22
2023-05-16T20:58:52.022Z,96651.22
2023-05-16T21:01:19.054Z,96676.97
2023-05-16T21:03:46.099Z,96649.13
2023-05-16T21:06:13.248Z,96629.03
2023-05-16T21:08:40.508Z,96641.78
2023-05-16T21:11:07.518Z,96624.03
2023-05-16T21:13:34.504Z,96631.56
2023-05-16T21:16:01.638Z,96611.63
2023-05-16T21:18:28.697Z,96614.78
2023-05-16T21:20:55.690Z,96609.66
2023-05-16T21:23:22.641Z,96642.72
2023-05-16T21:25:49.569Z,96637.81
2023-05-16T21:28:16.621Z,96579.88
2023-05-16T21:30:43.654Z,96588.72
2023-05-16T21:33:10.719Z,96618.97
2023-05-16T21:35:37.745Z,96617.88
2023-05-16T21:38:04.752Z,96592.75
2023-05-16T21:40:31.879Z,96577.00
2023-05-16T21:42:58.897Z,96578.97
2023-05-16T21:45:26.386Z,96579.28
2023-05-16T21:47:53.719Z,96581.84
2023-05-16T21:50:20.879Z,96618.59
2023-05-16T21:52:47.957Z,96648.34
2023-05-16T21:55:15.154Z,96680.91
2023-05-16T21:57:42.284Z,96685.25
